createdAt,value
2022-09-12T00:00:12.659Z,99.90
2022-09-12T00:02:42.044Z,99.90
2022-09-12T00:05:10.096Z,99.90
2022-09-12T00:07:38.111Z,99.90
2022-09-12T00:10:07.755Z,99.90
2022-09-12T00:12:35.840Z,99.90
2022-09-12T00:15:04.091Z,99.90
2022-09-12T00:17:32.079Z,99.90
2022-09-12T00:20:01.819Z,99.90
2022-09-12T00:22:29.865Z,99.90
2022-09-12T00:24:57.963Z,99.90
2022-09-12T00:27:25.995Z,99.90
2022-09-12T00:29:54.167Z,99.90
2022-09-12T00:32:22.615Z,99.90
2022-09-12T00:34:50.603Z,99.90
2022-09-12T00:37:20.015Z,99.90
2022-09-12T00:39:48.009Z,99.90
2022-09-12T00:42:15.990Z,99.90
2022-09-12T00:44:52.487Z,99.90
2022-09-12T00:47:29.038Z,99.90
2022-09-12T00:50:02.446Z,99.90
2022-09-12T00:52:36.670Z,99.90
2022-09-12T00:55:08.994Z,99.90
2022-09-12T00:57:42.599Z,99.90
2022-09-12T01:00:16.187Z,99.90
2022-09-12T01:02:47.158Z,99.90
2022-09-12T01:05:15.594Z,99.90
2022-09-12T01:07:48.560Z,99.90
2022-09-12T01:10:16.855Z,99.90
2022-09-12T01:12:45.591Z,99.90
2022-09-12T01:15:13.835Z,99.90
2022-09-12T01:17:54.018Z,99.90
2022-09-12T01:21:00.226Z,99.90
2022-09-12T01:24:08.252Z,99.90
2022-09-12T01:27:20.182Z,99.90
2022-09-12T01:30:19.053Z,99.90
2022-09-12T01:33:07.526Z,99.90
2022-09-12T01:35:46.648Z,99.90
2022-09-12T01:38:24.390Z,99.90
2022-09-12T01:41:02.673Z,99.90
2022-09-12T01:43:35.713Z,99.90
2022-09-12T01:46:12.894Z,99.90
2022-09-12T01:48:45.777Z,99.90
2022-09-12T01:51:22.358Z,99.90
2022-09-12T01:53:55.694Z,99.90
2022-09-12T01:56:26.830Z,99.90
2022-09-12T01:58:59.229Z,99.90
2022-09-12T02:01:30.617Z,99.90
2022-09-12T02:04:05.667Z,99.90
2022-09-12T02:06:38.122Z,99.90
2022-09-12T02:09:10.389Z,99.90
2022-09-12T02:11:43.773Z,99.90
2022-09-12T02:14:14.913Z,99.90
2022-09-12T02:16:48.237Z,99.90
2022-09-12T02:19:18.932Z,99.90
2022-09-12T02:21:51.294Z,99.90
2022-09-12T02:24:21.893Z,99.90
2022-09-12T02:26:55.769Z,99.90
2022-09-12T02:29:24.064Z,99.90
2022-09-12T02:31:58.561Z,99.90
2022-09-12T02:34:35.289Z,99.90
2022-09-12T02:37:09.072Z,99.90
2022-09-12T02:39:38.843Z,99.90
2022-09-12T02:42:08.693Z,99.90
2022-09-12T02:44:37.817Z,99.90
2022-09-12T02:47:11.744Z,99.90
2022-09-12T02:49:40.084Z,99.90
2022-09-12T02:52:08.290Z,99.90
2022-09-12T02:54:37.836Z,99.90
2022-09-12T02:57:19.500Z,99.90
2022-09-12T02:59:51.624Z,99.90
2022-09-12T03:02:36.767Z,99.90
2022-09-12T03:05:17.799Z,99.90
2022-09-12T03:08:32.156Z,99.90
2022-09-12T03:11:16.883Z,99.90
2022-09-12T03:13:55.622Z,99.90
2022-09-12T03:16:35.269Z,99.90
2022-09-12T03:19:15.088Z,99.90
2022-09-12T03:21:50.958Z,99.90
2022-09-12T03:24:23.343Z,99.90
2022-09-12T03:26:56.707Z,99.90
2022-09-12T03:29:26.335Z,99.90
2022-09-12T03:31:56.777Z,99.90
2022-09-12T03:34:28.078Z,99.90
2022-09-12T03:36:56.956Z,99.90
2022-09-12T03:39:26.809Z,99.90
2022-09-12T03:41:54.919Z,99.90
2022-09-12T03:44:23.346Z,99.90
2022-09-12T03:46:51.322Z,99.90
2022-09-12T03:49:19.374Z,99.90
2022-09-12T03:51:48.690Z,99.90
2022-09-12T03:54:16.794Z,99.90
2022-09-12T03:56:44.814Z,99.90
2022-09-12T03:59:12.885Z,99.90
2022-09-12T04:01:41.955Z,99.90
2022-09-12T04:04:10.834Z,99.90
2022-09-12T04:06:38.918Z,99.90
2022-09-12T04:09:08.594Z,99.90
2022-09-12T04:11:36.902Z,99.90
2022-09-12T04:14:04.950Z,99.90
2022-09-12T04:16:33.519Z,99.90
2022-09-12T04:19:01.554Z,99.90
2022-09-12T04:21:29.550Z,99.90
2022-09-12T04:23:57.666Z,99.90
2022-09-12T04:26:29.771Z,99.90
2022-09-12T04:28:57.717Z,99.90
2022-09-12T04:31:26.569Z,99.90
2022-09-12T04:33:55.548Z,99.90
2022-09-12T04:36:24.042Z,99.90
2022-09-12T04:38:52.266Z,99.90
2022-09-12T04:41:22.562Z,99.90
2022-09-12T04:43:55.893Z,99.90
2022-09-12T04:46:23.866Z,99.90
2022-09-12T04:48:56.441Z,99.90
2022-09-12T04:51:27.695Z,99.90
2022-09-12T04:53:58.109Z,99.90
2022-09-12T04:56:27.210Z,99.90
2022-09-12T04:58:59.001Z,99.90
2022-09-12T05:01:28.137Z,99.90
2022-09-12T05:03:57.599Z,99.90
2022-09-12T05:06:27.592Z,99.90
2022-09-12T05:08:57.424Z,99.90
2022-09-12T05:11:41.225Z,99.90
2022-09-12T05:14:11.545Z,99.90
2022-09-12T05:16:39.716Z,99.90
2022-09-12T05:19:09.275Z,99.90
2022-09-12T05:21:37.288Z,99.90
2022-09-12T05:24:06.266Z,99.90
2022-09-12T05:26:34.285Z,99.90
2022-09-12T05:29:02.320Z,99.90
2022-09-12T05:31:31.959Z,99.90
2022-09-12T05:34:00.188Z,99.90
2022-09-12T05:36:30.277Z,99.90
2022-09-12T05:38:58.569Z,99.90
2022-09-12T05:41:29.383Z,99.90
2022-09-12T05:43:58.780Z,99.90
2022-09-12T05:46:28.224Z,99.90
2022-09-12T05:48:58.435Z,99.90
2022-09-12T05:51:28.892Z,99.90
2022-09-12T05:53:58.792Z,99.90
2022-09-12T05:56:28.896Z,99.90
2022-09-12T05:58:59.021Z,99.90
2022-09-12T06:01:28.179Z,99.90
2022-09-12T06:04:00.749Z,99.90
2022-09-12T06:06:30.864Z,99.90
2022-09-12T06:09:00.988Z,99.90
2022-09-12T06:11:31.580Z,99.90
2022-09-12T06:14:00.187Z,99.90
2022-09-12T06:16:30.309Z,99.90
2022-09-12T06:19:02.382Z,99.90
2022-09-12T06:21:32.040Z,99.90
2022-09-12T06:24:00.416Z,99.90
2022-09-12T06:26:29.631Z,99.90
2022-09-12T06:28:59.423Z,99.90
2022-09-12T06:31:29.633Z,99.90
2022-09-12T06:34:00.816Z,99.90
2022-09-12T06:36:31.386Z,99.90
2022-09-12T06:39:00.877Z,99.90
2022-09-12T06:41:29.533Z,99.90
2022-09-12T06:43:57.699Z,99.90
2022-09-12T06:46:26.435Z,99.90
2022-09-12T06:48:54.792Z,99.90
2022-09-12T06:51:24.623Z,99.90
2022-09-12T06:53:56.742Z,99.90
2022-09-12T06:56:26.820Z,99.90
2022-09-12T06:58:57.149Z,99.90
2022-09-12T07:01:26.528Z,99.90
2022-09-12T07:03:56.924Z,99.90
2022-09-12T07:06:31.599Z,99.90
2022-09-12T07:09:00.350Z,99.90
2022-09-12T07:11:31.359Z,99.90
2022-09-12T07:14:00.779Z,99.90
2022-09-12T07:16:30.349Z,99.90
2022-09-12T07:19:01.055Z,99.90
2022-09-12T07:21:31.015Z,99.90
2022-09-12T07:23:59.760Z,99.90
2022-09-12T07:26:29.136Z,99.90
2022-09-12T07:29:18.649Z,99.90
2022-09-12T07:31:47.137Z,99.90
2022-09-12T07:34:15.243Z,99.90
2022-09-12T07:36:44.520Z,99.90
2022-09-12T07:39:12.588Z,99.90
2022-09-12T07:41:41.880Z,99.90
2022-09-12T07:44:10.201Z,99.90
2022-09-12T07:46:39.926Z,99.90
2022-09-12T07:49:08.581Z,99.90
2022-09-12T07:51:36.766Z,99.90
2022-09-12T07:54:09.156Z,99.90
2022-09-12T07:56:39.458Z,99.90
2022-09-12T07:59:07.907Z,99.90
2022-09-12T08:01:36.431Z,99.90
2022-09-12T08:04:05.283Z,99.90
2022-09-12T08:06:36.015Z,99.90
2022-09-12T08:09:05.517Z,99.90
2022-09-12T08:11:35.101Z,99.90
2022-09-12T08:14:05.592Z,99.90
2022-09-12T08:16:34.739Z,99.90
2022-09-12T08:19:03.595Z,99.90
2022-09-12T08:21:34.328Z,99.90
2022-09-12T08:24:04.831Z,99.90
2022-09-12T08:26:34.931Z,99.90
2022-09-12T08:29:04.228Z,99.90
2022-09-12T08:31:36.459Z,99.90
2022-09-12T08:34:06.577Z,99.90
2022-09-12T08:36:35.257Z,99.90
2022-09-12T08:39:05.527Z,99.90
2022-09-12T08:41:38.829Z,99.90
2022-09-12T08:44:27.336Z,99.90
2022-09-12T08:47:12.230Z,99.90
2022-09-12T08:49:48.463Z,99.90
2022-09-12T08:52:20.469Z,99.90
2022-09-12T08:54:50.113Z,99.90
2022-09-12T08:57:19.528Z,99.90
2022-09-12T08:59:48.370Z,99.90
2022-09-12T09:02:38.321Z,99.90
2022-09-12T09:05:20.148Z,99.90
2022-09-12T09:08:06.091Z,99.90
2022-09-12T09:10:41.503Z,99.90
2022-09-12T09:13:43.398Z,99.90
2022-09-12T09:16:19.078Z,99.90
2022-09-12T09:18:49.494Z,99.90
2022-09-12T09:21:24.745Z,99.90
2022-09-12T09:24:00.079Z,99.90
2022-09-12T09:26:32.551Z,99.90
2022-09-12T09:29:05.894Z,99.90
2022-09-12T09:31:39.143Z,99.90
2022-09-12T09:34:15.675Z,99.90
2022-09-12T09:36:50.604Z,99.90
2022-09-12T09:39:31.180Z,99.90
2022-09-12T09:42:14.194Z,99.90
2022-09-12T09:44:43.900Z,99.90
2022-09-12T09:47:13.553Z,99.90
2022-09-12T09:49:42.484Z,99.90
2022-09-12T09:52:15.736Z,99.90
2022-09-12T09:54:49.490Z,99.90
2022-09-12T09:57:40.090Z,99.90
2022-09-12T10:00:28.300Z,99.90
2022-09-12T10:03:06.764Z,99.90
2022-09-12T10:05:45.156Z,99.90
2022-09-12T10:08:22.162Z,99.90
2022-09-12T10:10:59.157Z,99.90
2022-09-12T10:13:36.482Z,99.90
2022-09-12T10:16:08.827Z,99.90
2022-09-12T10:18:42.941Z,99.90
2022-09-12T10:21:32.025Z,99.90
2022-09-12T10:24:05.223Z,99.90
2022-09-12T10:26:36.751Z,99.90
2022-09-12T10:29:12.705Z,99.90
2022-09-12T10:31:48.516Z,99.90
2022-09-12T10:34:27.886Z,99.90
2022-09-12T10:37:01.403Z,99.90
2022-09-12T10:39:29.673Z,99.60
2022-09-12T10:41:57.876Z,98.70
2022-09-12T10:44:27.957Z,97.90
2022-09-12T10:46:58.381Z,97.60
2022-09-12T10:49:29.883Z,97.40
2022-09-12T10:52:16.568Z,97.30
2022-09-12T10:54:44.692Z,97.00
2022-09-12T10:57:41.857Z,96.80
2022-09-12T11:00:15.831Z,96.30
2022-09-12T11:02:57.564Z,96.00
2022-09-12T11:05:40.965Z,95.10
2022-09-12T11:08:20.082Z,94.70
2022-09-12T11:10:57.053Z,94.90
2022-09-12T11:13:47.732Z,95.00
2022-09-12T11:16:26.545Z,94.50
2022-09-12T11:19:11.354Z,94.00
2022-09-12T11:21:59.154Z,94.00
2022-09-12T11:24:50.579Z,94.20
2022-09-12T11:27:35.079Z,94.50
2022-09-12T11:30:07.529Z,95.10
2022-09-12T11:32:51.094Z,94.90
2022-09-12T11:35:26.185Z,93.40
2022-09-12T11:38:18.756Z,92.30
2022-09-12T11:40:52.243Z,91.10
2022-09-12T11:43:30.953Z,90.10
2022-09-12T11:46:06.229Z,88.10
2022-09-12T11:48:43.996Z,86.00
2022-09-12T11:51:19.905Z,85.30
2022-09-12T11:53:59.036Z,85.70
2022-09-12T11:56:27.287Z,85.00
2022-09-12T11:59:01.879Z,84.90
2022-09-12T12:01:37.493Z,82.80
2022-09-12T12:04:12.790Z,82.20
2022-09-12T12:06:50.735Z,80.20
2022-09-12T12:09:19.131Z,78.40
2022-09-12T12:11:52.600Z,78.00
2022-09-12T12:14:24.129Z,76.80
2022-09-12T12:16:52.386Z,75.60
2022-09-12T12:19:34.882Z,74.80
2022-09-12T12:22:18.190Z,74.30
2022-09-12T12:25:10.851Z,73.30
2022-09-12T12:27:51.209Z,72.00
2022-09-12T12:31:00.716Z,71.60
2022-09-12T12:34:02.976Z,71.00
2022-09-12T12:36:42.200Z,69.90
2022-09-12T12:39:56.293Z,69.90
2022-09-12T12:43:07.661Z,68.60
2022-09-12T12:46:08.070Z,67.70
2022-09-12T12:48:59.466Z,66.70
2022-09-12T12:51:53.987Z,66.40
2022-09-12T12:54:43.608Z,65.40
2022-09-12T12:57:30.827Z,65.30
2022-09-12T13:00:02.366Z,64.90
2022-09-12T13:02:34.290Z,65.20
2022-09-12T13:05:06.442Z,64.40
2022-09-12T13:07:37.993Z,65.00
2022-09-12T13:10:08.313Z,64.40
2022-09-12T13:12:39.076Z,64.40
2022-09-12T13:15:46.927Z,64.10
2022-09-12T13:18:23.164Z,63.60
2022-09-12T13:20:55.591Z,63.70
2022-09-12T13:23:25.007Z,63.20
2022-09-12T13:25:58.279Z,62.40
2022-09-12T13:28:27.428Z,61.70
2022-09-12T13:31:07.967Z,62.00
2022-09-12T13:33:41.937Z,62.10
2022-09-12T13:36:31.571Z,61.70
2022-09-12T13:39:29.809Z,60.80
2022-09-12T13:42:36.221Z,60.40
2022-09-12T13:45:07.184Z,60.30
2022-09-12T13:47:38.942Z,60.80
2022-09-12T13:50:14.319Z,60.50
2022-09-12T13:52:45.840Z,59.90
2022-09-12T13:55:26.448Z,59.90
2022-09-12T13:57:59.926Z,60.10
2022-09-12T14:00:28.346Z,60.20
2022-09-12T14:03:10.209Z,60.00
2022-09-12T14:05:44.633Z,59.80
2022-09-12T14:08:15.311Z,60.10
2022-09-12T14:10:45.433Z,60.20
2022-09-12T14:13:19.029Z,60.40
2022-09-12T14:15:49.593Z,60.40
2022-09-12T14:18:26.163Z,60.30
2022-09-12T14:20:57.477Z,60.20
2022-09-12T14:23:31.148Z,60.10
2022-09-12T14:26:02.702Z,60.30
2022-09-12T14:28:31.539Z,60.80
2022-09-12T14:31:01.652Z,60.70
2022-09-12T14:33:30.224Z,60.70
2022-09-12T14:36:12.822Z,60.90
2022-09-12T14:38:44.733Z,60.60
2022-09-12T14:41:15.054Z,61.10
2022-09-12T14:43:46.433Z,61.30
2022-09-12T14:46:20.760Z,61.50
2022-09-12T14:48:52.620Z,61.70
2022-09-12T14:51:29.128Z,61.90
2022-09-12T14:53:58.403Z,61.20
2022-09-12T14:56:40.893Z,60.80
2022-09-12T14:59:27.597Z,60.00
2022-09-12T15:02:24.037Z,59.70
2022-09-12T15:04:54.140Z,59.70
2022-09-12T15:07:33.936Z,59.50
2022-09-12T15:10:03.986Z,59.20
2022-09-12T15:12:32.193Z,58.80
2022-09-12T15:15:08.150Z,58.10
2022-09-12T15:17:36.118Z,57.90
2022-09-12T15:20:05.317Z,58.00
2022-09-12T15:22:35.840Z,58.10
2022-09-12T15:25:05.800Z,58.20
2022-09-12T15:27:33.880Z,58.20
2022-09-12T15:30:02.457Z,57.90
2022-09-12T15:32:31.618Z,57.80
2022-09-12T15:34:59.605Z,57.60
2022-09-12T15:37:27.620Z,57.40
2022-09-12T15:39:57.027Z,57.90
2022-09-12T15:42:29.280Z,57.40
2022-09-12T15:45:01.802Z,57.30
2022-09-12T15:47:30.470Z,57.00
2022-09-12T15:49:58.538Z,57.10
2022-09-12T15:52:26.959Z,57.20
2022-09-12T15:54:56.413Z,57.50
2022-09-12T15:57:24.417Z,58.00
2022-09-12T15:59:53.030Z,58.60
2022-09-12T16:02:21.090Z,59.30
2022-09-12T16:04:49.387Z,60.10
2022-09-12T16:07:17.436Z,60.70
2022-09-12T16:09:46.262Z,61.40
2022-09-12T16:12:15.659Z,62.20
2022-09-12T16:14:43.722Z,62.70
2022-09-12T16:17:11.985Z,63.40
2022-09-12T16:19:39.947Z,64.00
2022-09-12T16:22:07.934Z,64.70
2022-09-12T16:24:36.023Z,65.20
2022-09-12T16:27:04.366Z,65.70
2022-09-12T16:29:33.709Z,66.10
2022-09-12T16:32:01.805Z,66.40
2022-09-12T16:34:29.817Z,66.70
2022-09-12T16:36:57.757Z,67.20
2022-09-12T16:39:25.892Z,68.20
2022-09-12T16:41:53.941Z,69.50
2022-09-12T16:44:21.916Z,70.80
2022-09-12T16:46:51.404Z,71.80
2022-09-12T16:49:19.632Z,72.80
2022-09-12T16:51:47.659Z,73.50
2022-09-12T16:54:16.272Z,74.20
2022-09-12T16:56:44.996Z,74.90
2022-09-12T16:59:16.295Z,75.90
2022-09-12T17:01:45.449Z,76.70
2022-09-12T17:04:15.093Z,77.40
2022-09-12T17:06:43.084Z,78.20
2022-09-12T17:09:16.292Z,78.90
2022-09-12T17:11:44.740Z,80.50
2022-09-12T17:14:12.970Z,80.50
2022-09-12T17:16:45.143Z,81.00
2022-09-12T17:19:19.379Z,81.60
2022-09-12T17:21:48.846Z,82.30
2022-09-12T17:24:17.177Z,83.10
2022-09-12T17:26:45.254Z,83.80
2022-09-12T17:29:14.221Z,84.40
2022-09-12T17:31:42.792Z,85.00
2022-09-12T17:34:14.250Z,85.70
2022-09-12T17:36:45.228Z,86.30
2022-09-12T17:39:14.212Z,86.80
2022-09-12T17:41:43.168Z,87.50
2022-09-12T17:44:13.912Z,88.20
2022-09-12T17:46:42.625Z,88.90
2022-09-12T17:51:43.685Z,89.40
2022-09-12T17:54:14.078Z,90.20
2022-09-12T17:56:42.811Z,90.40
2022-09-12T17:59:15.652Z,90.80
2022-09-12T18:02:01.432Z,91.20
2022-09-12T18:04:29.886Z,91.30
2022-09-12T18:07:00.543Z,91.50
2022-09-12T18:09:29.143Z,91.70
2022-09-12T18:11:57.346Z,91.90
2022-09-12T18:14:26.253Z,92.20
2022-09-12T18:16:57.040Z,92.50
2022-09-12T18:19:25.362Z,92.50
2022-09-12T18:21:53.633Z,92.50
2022-09-12T18:24:23.572Z,92.60
2022-09-12T18:26:51.721Z,92.60
2022-09-12T18:29:20.114Z,92.90
2022-09-12T18:31:48.180Z,93.00
2022-09-12T18:34:16.657Z,93.20
2022-09-12T18:36:46.385Z,93.30
2022-09-12T18:39:15.117Z,93.50
2022-09-12T18:41:44.807Z,93.60
2022-09-12T18:44:13.389Z,93.70
2022-09-12T18:46:41.717Z,94.20
2022-09-12T18:49:09.969Z,94.00
2022-09-12T18:51:41.661Z,94.30
2022-09-12T18:54:14.387Z,94.40
2022-09-12T18:56:45.630Z,94.60
2022-09-12T18:59:14.834Z,94.70
2022-09-12T19:01:43.915Z,94.90
2022-09-12T19:04:14.457Z,95.20
2022-09-12T19:06:44.525Z,95.40
2022-09-12T19:09:14.408Z,95.60
2022-09-12T19:11:48.906Z,95.70
2022-09-12T19:14:17.684Z,95.90
2022-09-12T19:16:45.881Z,96.00
2022-09-12T19:19:13.943Z,96.20
2022-09-12T19:21:42.544Z,96.50
2022-09-12T19:24:11.103Z,96.60
2022-09-12T19:26:40.295Z,96.70
2022-09-12T19:29:10.039Z,96.80
2022-09-12T19:31:38.114Z,97.00
2022-09-12T19:34:07.979Z,97.20
2022-09-12T19:36:51.698Z,97.50
2022-09-12T19:39:20.607Z,97.60
2022-09-12T19:41:49.289Z,97.70
2022-09-12T19:44:20.063Z,97.80
2022-09-12T19:46:48.908Z,97.90
2022-09-12T19:49:16.902Z,98.00
2022-09-12T19:51:44.905Z,98.10
2022-09-12T19:54:12.845Z,98.20
2022-09-12T19:56:40.913Z,98.30
2022-09-12T19:59:09.775Z,98.30
2022-09-12T20:01:39.307Z,98.40
2022-09-12T20:04:07.580Z,98.50
2022-09-12T20:06:36.749Z,98.60
2022-09-12T20:09:04.893Z,98.70
2022-09-12T20:11:32.955Z,98.70
2022-09-12T20:14:01.146Z,98.70
2022-09-12T20:16:30.070Z,98.80
2022-09-12T20:19:00.891Z,99.00
2022-09-12T20:21:32.944Z,98.90
2022-09-12T20:24:02.959Z,99.00
2022-09-12T20:26:31.539Z,99.00
2022-09-12T20:28:59.867Z,99.10
2022-09-12T20:31:27.945Z,99.20
2022-09-12T20:33:56.351Z,99.30
2022-09-12T20:36:26.187Z,99.50
2022-09-12T20:38:56.818Z,99.70
2022-09-12T20:41:26.726Z,99.90
2022-09-12T20:43:56.384Z,99.90
2022-09-12T20:46:25.760Z,99.90
2022-09-12T20:48:54.344Z,99.90
2022-09-12T20:51:24.625Z,99.90
2022-09-12T20:53:56.419Z,99.90
2022-09-12T20:56:27.129Z,99.90
2022-09-12T20:58:55.928Z,99.90
2022-09-12T21:01:24.505Z,99.90
2022-09-12T21:03:52.958Z,99.90
2022-09-12T21:06:21.779Z,99.90
2022-09-12T21:08:51.256Z,99.90
2022-09-12T21:11:21.484Z,99.90
2022-09-12T21:13:50.334Z,99.90
2022-09-12T21:16:20.446Z,99.90
2022-09-12T21:18:54.090Z,99.90
2022-09-12T21:21:22.602Z,99.90
2022-09-12T21:23:51.096Z,99.90
2022-09-12T21:26:20.427Z,99.90
2022-09-12T21:28:49.471Z,99.90
2022-09-12T21:31:17.545Z,99.90
2022-09-12T21:33:45.654Z,99.90
2022-09-12T21:36:13.738Z,99.90
2022-09-12T21:38:41.855Z,99.90
2022-09-12T21:41:11.194Z,99.90
2022-09-12T21:43:40.817Z,99.90
2022-09-12T21:46:09.701Z,99.90
2022-09-12T21:48:38.358Z,99.90
2022-09-12T21:51:06.655Z,99.90
2022-09-12T21:53:34.649Z,99.90
2022-09-12T21:56:03.797Z,99.90
2022-09-12T21:58:31.898Z,99.90
2022-09-12T22:01:01.605Z,99.90
2022-09-12T22:03:30.350Z,99.90
2022-09-12T22:05:59.724Z,99.90
2022-09-12T22:08:27.677Z,99.90
2022-09-12T22:10:59.457Z,99.90
2022-09-12T22:13:27.966Z,99.90
2022-09-12T22:15:56.203Z,99.90
2022-09-12T22:18:25.702Z,99.90
2022-09-12T22:21:00.729Z,99.90
2022-09-12T22:23:46.253Z,99.90
2022-09-12T22:26:15.402Z,99.90
2022-09-12T22:28:44.028Z,99.90
2022-09-12T22:31:12.676Z,99.90
2022-09-12T22:33:42.217Z,99.90
2022-09-12T22:36:11.579Z,99.90
2022-09-12T22:38:39.850Z,99.90
2022-09-12T22:41:10.197Z,99.90
2022-09-12T22:43:38.921Z,99.90
2022-09-12T22:46:08.188Z,99.90
2022-09-12T22:48:36.526Z,99.90
2022-09-12T22:51:06.364Z,99.90
2022-09-12T22:53:34.597Z,99.90
2022-09-12T22:56:03.028Z,99.90
2022-09-12T22:58:31.054Z,99.90
2022-09-12T23:00:59.448Z,99.90
2022-09-12T23:03:27.601Z,99.90
2022-09-12T23:05:55.594Z,99.90
2022-09-12T23:08:27.354Z,99.90
2022-09-12T23:11:02.370Z,99.90
2022-09-12T23:13:31.072Z,99.90
2022-09-12T23:16:00.777Z,99.90
2022-09-12T23:18:29.622Z,99.90
2022-09-12T23:20:59.116Z,99.90
2022-09-12T23:23:28.962Z,99.90
2022-09-12T23:26:04.541Z,99.90
2022-09-12T23:28:32.841Z,99.90
2022-09-12T23:31:01.121Z,99.90
2022-09-12T23:33:29.646Z,99.90
2022-09-12T23:36:01.819Z,99.90
2022-09-12T23:38:31.469Z,99.90
2022-09-12T23:40:59.975Z,99.90
2022-09-12T23:43:29.445Z,99.90
2022-09-12T23:45:57.798Z,99.90
2022-09-12T23:48:26.484Z,99.90
2022-09-12T23:50:54.977Z,99.90
2022-09-12T23:53:23.637Z,99.90
2022-09-12T23:55:53.653Z,99.90
2022-09-12T23:58:22.625Z,99.90
